Time;durP1;ratioP1;P1;durP2;ratioP2;P2;SDS_P1;SDS_P2;PMS_P1;PMS_P2;Temp;Humidity;BMP_temperature;BMP_pressure;BME280_temperature;BME280_humidity;BME280_pressure;Samples;Min_cycle;Max_cycle;Signal;HPM_P1;HPM_P2
2021/06/14 00:01:21;;;;;;;17.93;9.47;;;;;;;30.41;59.57;100844.03;5083365;27;66108;-36
2021/06/14 00:03:52;;;;;;;19.57;9.73;;;;;;;30.46;59.65;100838.78;5087040;27;69759;-36
2021/06/14 00:06:24;;;;;;;10.57;9.75;;;;;;;30.49;60.99;100843.78;5085564;27;66161;-34
2021/06/14 00:08:55;;;;;;;11.13;10.03;;;;;;;30.53;59.44;100847.69;5087247;27;69986;-34
2021/06/14 00:11:27;;;;;;;16.85;10.30;;;;;;;30.59;60.38;100844.13;5083295;27;65279;-37
2021/06/14 00:13:58;;;;;;;17.37;11.10;;;;;;;30.63;60.15;100847.22;5090555;27;69892;-37
2021/06/14 00:16:29;;;;;;;17.27;13.65;;;;;;;30.65;60.71;100837.81;5093196;27;65990;-36
2021/06/14 00:19:01;;;;;;;25.48;16.08;;;;;;;30.72;61.45;100845.88;5085343;27;69819;-37
2021/06/14 00:21:33;;;;;;;34.63;17.30;;;;;;;30.76;61.20;100841.69;5086641;27;65973;-37
2021/06/14 00:24:06;;;;;;;17.60;15.48;;;;;;;30.83;60.45;100847.09;5084941;27;69436;-36
2021/06/14 00:26:37;;;;;;;18.58;16.98;;;;;;;30.87;61.08;100848.28;5091572;27;65123;-35
2021/06/14 00:29:09;;;;;;;26.47;18.50;;;;;;;30.90;61.00;100850.59;5083542;27;68941;-34
2021/06/14 00:31:41;;;;;;;22.00;19.88;;;;;;;30.94;61.22;100854.50;5078844;27;65658;-35
2021/06/14 00:34:12;;;;;;;26.35;24.02;;;;;;;30.98;61.02;100855.72;5084647;27;68916;-35
2021/06/14 00:36:43;;;;;;;28.87;23.53;;;;;;;31.01;61.26;100855.28;5081583;27;65707;-36
2021/06/14 00:39:15;;;;;;;28.15;23.85;;;;;;;31.06;60.90;100855.41;5080045;27;69745;-35
2021/06/14 00:41:50;;;;;;;25.90;23.33;;;;;;;31.08;60.98;100850.59;5083851;27;65095;-35
2021/06/14 00:44:28;;;;;;;25.02;22.52;;;;;;;31.04;61.60;100835.88;5082933;27;70224;-35
2021/06/14 00:47:19;;;;;;;24.63;21.48;;;;;;;31.15;60.64;100856.00;5088785;27;65253;-34
2021/06/14 00:49:51;;;;;;;25.52;22.73;;;;;;;31.13;61.00;100842.66;5082074;27;70553;-35
2021/06/14 00:52:22;;;;;;;25.35;22.85;;;;;;;31.20;61.12;100858.00;5084662;27;65931;-35
2021/06/14 00:54:53;;;;;;;24.57;22.30;;;;;;;31.23;61.26;100852.13;5080358;27;68887;-35
2021/06/14 00:57:25;;;;;;;24.85;22.55;;;;;;;31.26;60.82;100859.81;5078333;27;66509;-34
2021/06/14 00:59:57;;;;;;;25.00;22.48;;;;;;;31.28;61.16;100855.00;5085978;27;69749;-34
2021/06/14 01:02:28;;;;;;;23.52;21.25;;;;;;;31.30;61.34;100858.34;5096379;27;66213;-35
2021/06/14 01:05:01;;;;;;;23.05;20.48;;;;;;;31.33;61.34;100857.88;5086948;27;69979;-35
2021/06/14 01:07:38;;;;;;;23.02;20.67;;;;;;;31.30;61.52;100847.50;5079903;27;66183;-36
2021/06/14 01:10:13;;;;;;;22.25;20.25;;;;;;;31.25;61.74;100831.91;5081729;27;69170;-36
2021/06/14 01:12:56;;;;;;;20.48;18.63;;;;;;;31.25;62.29;100833.78;5085009;27;65487;-34
2021/06/14 01:15:30;;;;;;;19.50;17.70;;;;;;;31.43;61.62;100858.25;5083474;27;69964;-35
2021/06/14 01:18:08;;;;;;;19.85;17.90;;;;;;;31.45;62.05;100855.28;5086943;27;65992;-36
2021/06/14 01:21:11;;;;;;;18.00;16.25;;;;;;;31.47;61.67;100864.84;5083398;27;69606;-35
2021/06/14 01:24:23;;;;;;;17.58;16.27;;;;;;;31.49;61.33;100865.47;5082055;27;65214;-35
2021/06/14 01:27:12;;;;;;;16.65;15.25;;;;;;;31.44;60.89;100850.94;5063888;27;69659;-35
2021/06/14 01:29:49;;;;;;;15.98;14.63;;;;;;;31.56;60.94;100868.09;5084692;27;65412;-35
2021/06/14 01:32:21;;;;;;;17.02;15.40;;;;;;;31.58;61.31;100866.81;5082222;27;69809;-35
2021/06/14 01:34:53;;;;;;;15.90;14.23;;;;;;;31.61;60.91;100865.53;5082598;27;66681;-34
2021/06/14 01:37:28;;;;;;;15.27;13.88;;;;;;;31.63;61.34;100860.72;5081370;27;70390;-36
2021/06/14 01:40:01;;;;;;;15.07;13.57;;;;;;;31.63;61.20;100857.19;5075061;27;65910;-35
2021/06/14 01:42:34;;;;;;;15.65;14.18;;;;;;;31.65;60.88;100855.91;5083297;27;69899;-34
2021/06/14 01:45:07;;;;;;;14.40;13.15;;;;;;;31.69;61.17;100867.13;5081592;27;66012;-35
2021/06/14 01:47:40;;;;;;;15.02;13.45;;;;;;;31.72;61.01;100870.22;5088740;27;69919;-35
2021/06/14 01:50:12;;;;;;;14.05;12.63;;;;;;;31.75;61.20;100866.22;5084635;27;66523;-38
2021/06/14 01:52:45;;;;;;;14.43;12.93;;;;;;;31.76;60.78;100867.88;5065818;27;69997;-34
2021/06/14 01:55:18;;;;;;;13.32;12.07;;;;;;;31.76;60.68;100859.72;5081378;27;66039;-36
2021/06/14 01:57:57;;;;;;;12.85;11.88;;;;;;;31.80;60.70;100863.66;5075068;27;70110;-36
2021/06/14 02:00:41;;;;;;;12.15;10.95;;;;;;;31.84;61.32;100867.56;5076358;27;67010;-36
2021/06/14 02:03:34;;;;;;;11.18;10.32;;;;;;;31.85;60.89;100866.53;5073254;27;70230;-36
2021/06/14 02:06:24;;;;;;;13.02;11.30;;;;;;;31.88;60.60;100865.25;5096082;27;66063;-36
2021/06/14 02:08:58;;;;;;;11.57;10.45;;;;;;;31.90;60.56;100858.53;5089222;27;69201;-36
2021/06/14 02:11:31;;;;;;;11.95;10.45;;;;;;;31.93;60.79;100868.09;5079395;27;65400;-36
2021/06/14 02:14:06;;;;;;;11.05;10.30;;;;;;;31.94;60.75;100861.66;5083641;27;69205;-35
2021/06/14 02:16:39;;;;;;;11.60;10.50;;;;;;;31.96;60.64;100846.78;5069484;27;66440;-35
2021/06/14 02:19:12;;;;;;;13.73;9.25;;;;;;;31.93;60.49;100858.09;5086977;27;69886;-36
2021/06/14 02:21:46;;;;;;;12.70;9.82;;;;;;;32.00;60.25;100853.41;5079907;27;66289;-35
2021/06/14 02:24:18;;;;;;;12.45;9.30;;;;;;;32.01;60.72;100848.81;5081856;27;69389;-37
2021/06/14 02:26:51;;;;;;;11.60;10.25;;;;;;;32.03;60.17;100852.94;5081980;27;66074;-36
2021/06/14 02:29:24;;;;;;;10.45;9.40;;;;;;;32.05;60.47;100850.84;5082145;27;70020;-35
2021/06/14 02:32:23;;;;;;;10.77;9.15;;;;;;;32.08;60.47;100844.13;5078024;27;66160;-39
2021/06/14 02:35:21;;;;;;;11.57;8.80;;;;;;;31.93;60.44;100814.69;5073063;27;70181;-36
2021/06/14 02:38:04;;;;;;;9.55;8.65;;;;;;;32.11;60.61;100846.38;5082364;27;66093;-37
2021/06/14 02:40:36;;;;;;;9.95;9.02;;;;;;;32.17;60.21;100850.06;5069314;27;69911;-37
2021/06/14 02:43:08;;;;;;;;;;;;;;;31.97;60.90;100848.44;5080692;27;65366;-37
2021/06/14 02:45:43;;;;;;;8.57;8.05;;;;;;;32.19;60.43;100839.81;5083187;27;70281;-36
2021/06/14 02:48:25;;;;;;;9.18;8.50;;;;;;;32.22;59.80;100839.34;5089087;27;66072;-36
2021/06/14 02:51:00;;;;;;;9.38;8.07;;;;;;;32.25;59.88;100845.13;5073944;27;69474;-37
2021/06/14 02:53:39;;;;;;;9.82;8.93;;;;;;;32.24;60.15;100837.25;5063338;28;67079;-38
2021/06/14 02:56:26;;;;;;;;;;;;;;;32.08;60.39;100837.88;5082716;27;68651;-36
2021/06/14 02:58:59;;;;;;;8.77;8.07;;;;;;;32.25;59.90;100822.59;5077139;27;66689;-36
2021/06/14 03:01:33;;;;;;;8.50;7.80;;;;;;;32.34;59.69;100836.66;5082549;27;70483;-35
2021/06/14 03:04:07;;;;;;;9.35;8.60;;;;;;;32.35;59.50;100827.47;5085550;27;66525;-35
2021/06/14 03:06:39;;;;;;;11.50;10.60;;;;;;;32.34;59.44;100820.38;5078459;27;69407;-34
2021/06/14 03:09:12;;;;;;;11.15;10.32;;;;;;;32.38;59.62;100830.56;5070876;27;66516;-35
2021/06/14 03:11:46;;;;;;;10.25;9.45;;;;;;;32.34;59.56;100815.78;5094472;27;69779;-39
2021/06/14 03:14:25;;;;;;;12.23;10.40;;;;;;;32.43;59.33;100825.25;5088636;27;66058;-35
2021/06/14 03:17:03;;;;;;;10.45;9.65;;;;;;;32.41;59.27;100816.50;5083264;27;70095;-35
2021/06/14 03:19:54;;;;;;;10.60;9.63;;;;;;;32.47;58.76;100820.22;5082981;27;66333;-35
2021/06/14 03:22:27;;;;;;;9.90;9.30;;;;;;;32.53;58.77;100810.31;5083479;27;70121;-36
2021/06/14 03:24:59;;;;;;;9.80;9.10;;;;;;;32.55;58.67;100808.19;5084575;27;66220;-37
2021/06/14 03:27:34;;;;;;;9.65;8.90;;;;;;;32.59;58.51;100806.66;5089526;27;70025;-35
2021/06/14 03:30:06;;;;;;;11.68;10.10;;;;;;;32.59;58.47;100801.22;5083104;27;65167;-36
2021/06/14 03:32:43;;;;;;;9.25;8.35;;;;;;;32.61;58.15;100805.34;5076568;27;70151;-36
2021/06/14 03:35:18;;;;;;;10.23;9.43;;;;;;;32.60;58.07;100789.31;5077980;27;65451;-38
2021/06/14 03:37:51;;;;;;;10.65;9.65;;;;;;;32.64;58.13;100783.16;5081911;27;70389;-37
2021/06/14 03:40:23;;;;;;;12.15;11.25;;;;;;;32.65;58.06;100783.97;5082663;27;65612;-36
2021/06/14 03:43:04;;;;;;;11.23;10.43;;;;;;;32.58;57.86;100767.81;5083582;27;70371;-36
2021/06/14 03:45:39;;;;;;;11.38;10.40;;;;;;;32.70;58.15;100784.09;5080007;27;65418;-38
2021/06/14 03:48:16;;;;;;;12.25;10.85;;;;;;;32.70;58.10;100767.81;5080947;27;69840;-37
2021/06/14 03:50:53;;;;;;;13.52;12.23;;;;;;;32.69;57.96;100761.56;5084252;27;66482;-37
2021/06/14 03:53:31;;;;;;;14.80;13.45;;;;;;;32.75;57.76;100761.69;5088275;27;69810;-36
2021/06/14 03:56:05;;;;;;;15.50;14.20;;;;;;;32.61;57.70;100728.50;5088016;27;66923;-37
2021/06/14 03:58:37;;;;;;;15.43;14.23;;;;;;;32.70;57.80;100733.31;5081808;27;69980;-36
2021/06/14 04:01:09;;;;;;;18.25;16.40;;;;;;;32.79;57.69;100747.41;5090974;27;65257;-38
2021/06/14 04:03:42;;;;;;;17.17;15.65;;;;;;;32.84;57.84;100749.41;5059248;27;69059;-35
2021/06/14 04:06:16;;;;;;;18.98;17.08;;;;;;;32.86;57.76;100741.84;5087172;27;65301;-37
2021/06/14 04:08:48;;;;;;;16.85;15.40;;;;;;;32.87;57.66;100738.88;5076335;27;69265;-36
2021/06/14 04:11:20;;;;;;;15.85;14.55;;;;;;;32.88;57.64;100739.72;5096487;27;65173;-37
2021/06/14 04:13:55;;;;;;;17.38;15.85;;;;;;;32.90;57.40;100730.28;5091945;27;70113;-36
2021/06/14 04:16:55;;;;;;;17.73;16.00;;;;;;;32.84;57.27;100733.91;5086243;27;66324;-35
2021/06/14 04:20:16;;;;;;;17.80;15.98;;;;;;;32.81;57.08;100737.09;5081190;27;69657;-35
2021/06/14 04:22:54;;;;;;;16.30;15.10;;;;;;;32.90;57.44;100735.72;5075869;27;66231;-36
2021/06/14 04:25:25;;;;;;;18.45;16.85;;;;;;;32.94;57.23;100734.16;5087201;27;70159;-36
2021/06/14 04:27:57;;;;;;;;;;;;;;;32.73;57.43;100732.03;5079544;27;64974;-36
2021/06/14 04:30:29;;;;;;;19.15;16.83;;;;;;;32.92;57.41;100727.31;5087232;27;69341;-35
2021/06/14 04:33:03;;;;;;;17.73;16.20;;;;;;;32.96;57.07;100724.91;5091011;27;65979;-35
2021/06/14 04:35:35;;;;;;;19.17;17.23;;;;;;;33.01;56.85;100733.22;5082710;27;70289;-36
2021/06/14 04:38:07;;;;;;;17.20;15.50;;;;;;;33.03;56.88;100731.91;5081304;27;65776;-36
2021/06/14 04:40:45;;;;;;;17.25;15.85;;;;;;;33.04;56.70;100727.31;5081534;27;70344;-35
2021/06/14 04:43:17;;;;;;;15.48;14.45;;;;;;;33.08;56.68;100725.78;5085378;27;66100;-36
2021/06/14 04:45:49;;;;;;;17.20;15.85;;;;;;;33.08;56.71;100723.88;5095602;27;69463;-35
2021/06/14 04:51:32;;;;;;;16.70;15.20;;;;;;;33.15;56.66;100721.03;5030160;28;69172;-35
2021/06/14 04:54:04;;;;;;;17.05;15.43;;;;;;;33.16;56.25;100719.97;5035160;27;65962;-35
2021/06/14 04:56:36;;;;;;;18.25;16.52;;;;;;;33.18;56.41;100727.88;5098224;27;70153;-39
2021/06/14 04:59:08;;;;;;;17.35;15.77;;;;;;;33.17;56.41;100721.63;5075839;27;67565;-36
2021/06/14 05:01:39;;;;;;;;;;;;;;;32.92;56.66;100703.66;5096408;27;69168;-37
2021/06/14 05:04:11;;;;;;;14.75;13.52;;;;;;;33.10;56.64;100704.63;5079384;27;66261;-36
2021/06/14 05:07:23;;;;;;;15.15;13.85;;;;;;;33.13;56.09;100715.03;5083633;27;70226;-36
2021/06/14 05:09:56;;;;;;;14.85;13.63;;;;;;;33.21;56.27;100711.09;5077714;27;66527;-35
2021/06/14 05:12:28;;;;;;;13.63;12.50;;;;;;;33.23;56.22;100708.97;5078066;27;70142;-35
2021/06/14 05:15:10;;;;;;;13.45;12.55;;;;;;;33.26;56.15;100703.84;5075198;27;65406;-36
2021/06/14 05:18:06;;;;;;;16.45;15.25;;;;;;;33.22;56.06;100697.25;5085238;27;69615;-36
2021/06/14 05:20:38;;;;;;;17.07;15.70;;;;;;;33.26;56.26;100698.41;5085827;27;66458;-36
2021/06/14 05:23:11;;;;;;;20.92;19.20;;;;;;;33.25;56.07;100685.91;5086308;27;69689;-36
2021/06/14 05:25:43;;;;;;;20.70;19.00;;;;;;;33.30;56.07;100677.03;5077179;27;66074;-36
2021/06/14 05:28:17;;;;;;;20.17;18.40;;;;;;;33.32;56.04;100674.88;5081304;27;70101;-36
2021/06/14 05:30:52;;;;;;;21.02;19.30;;;;;;;33.32;55.96;100678.44;5079275;27;65275;-37
2021/06/14 05:33:25;;;;;;;21.02;18.92;;;;;;;33.37;55.79;100666.81;5088765;27;70296;-36
2021/06/14 05:36:01;;;;;;;28.10;25.17;;;;;;;33.33;55.72;100663.78;5084268;27;66059;-36
2021/06/14 05:39:05;;;;;;;41.30;37.03;;;;;;;33.41;55.74;100662.56;5081303;27;70131;-36
2021/06/14 05:41:40;;;;;;;55.05;49.58;;;;;;;33.47;55.53;100655.34;5088572;27;65991;-36
2021/06/14 05:44:12;;;;;;;53.92;48.22;;;;;;;33.50;55.64;100652.94;5086796;27;68636;-36
2021/06/14 05:46:44;;;;;;;;;;;;;;;33.28;55.53;100647.38;5079595;27;66084;-38
2021/06/14 05:49:22;;;;;;;62.17;55.92;;;;;;;33.49;55.26;100632.28;5078070;27;69141;-37
2021/06/14 05:52:23;;;;;;;71.38;63.70;;;;;;;33.55;54.99;100649.53;5075662;27;66171;-38
2021/06/14 05:54:55;;;;;;;73.50;65.53;;;;;;;33.58;55.02;100641.72;5079522;27;69921;-36
2021/06/14 05:57:33;;;;;;;77.72;69.40;;;;;;;33.57;54.85;100640.06;5089095;27;66126;-36
2021/06/14 06:00:09;;;;;;;89.78;80.25;;;;;;;33.59;54.92;100643.34;5085001;27;43807;-37
2021/06/14 06:02:56;;;;;;;87.95;78.63;;;;;;;33.60;54.98;100633.31;5084274;27;66199;-37
2021/06/14 06:05:28;;;;;;;86.65;77.57;;;;;;;33.63;54.83;100637.41;5082136;27;69740;-36
2021/06/14 06:07:59;;;;;;;;;;;;;;;33.38;55.23;100631.25;5081852;27;65149;-37
2021/06/14 06:10:32;;;;;;;85.68;76.47;;;;;;;33.61;55.18;100624.06;5078274;27;70058;-37
2021/06/14 06:13:04;;;;;;;83.75;74.88;;;;;;;33.61;55.10;100607.75;5075935;27;65338;-38
2021/06/14 06:15:35;;;;;;;;;;;;;;;33.42;55.29;100615.28;5085223;27;69854;-36
2021/06/14 06:18:14;;;;;;;74.35;66.45;;;;;;;33.67;54.90;100622.28;5080896;27;65504;-36
2021/06/14 06:21:14;;;;;;;79.75;71.43;;;;;;;33.64;54.56;100607.25;5084205;27;69913;-37
2021/06/14 06:23:49;;;;;;;75.88;67.38;;;;;;;33.71;54.86;100607.09;5083161;27;65292;-36
2021/06/14 06:26:20;;;;;;;80.72;71.97;;;;;;;33.67;55.17;100590.44;5078536;27;69598;-36
2021/06/14 06:28:52;;;;;;;;;;;;;;;33.50;55.22;100597.75;5075054;27;66026;-36
2021/06/14 06:31:24;;;;;;;82.68;73.82;;;;;;;33.73;54.97;100589.47;5089330;27;69060;-40
2021/06/14 06:34:16;;;;;;;86.82;77.75;;;;;;;33.69;54.82;100593.75;5075310;27;66026;-36
2021/06/14 06:36:48;;;;;;;84.78;75.65;;;;;;;33.73;55.06;100584.00;5076030;27;69566;-36
2021/06/14 06:39:42;;;;;;;85.10;75.90;;;;;;;33.78;54.95;100589.53;5071440;27;66150;-40
2021/06/14 06:42:14;;;;;;;85.63;76.55;;;;;;;33.79;54.89;100591.22;5074444;27;70271;-35
2021/06/14 06:44:45;;;;;;;;;;;;;;;33.59;55.05;100582.69;5091536;27;66024;-36
2021/06/14 06:47:19;;;;;;;77.63;69.32;;;;;;;33.78;54.78;100566.97;5093857;27;69346;-37
2021/06/14 06:50:03;;;;;;;79.05;70.10;;;;;;;33.85;55.08;100577.66;5095363;27;64868;-37
2021/06/14 06:52:55;;;;;;;79.10;70.60;;;;;;;33.87;54.72;100567.38;5088706;27;68500;-36
2021/06/14 06:55:33;;;;;;;76.65;68.60;;;;;;;33.92;54.45;100572.91;5104054;27;65384;-41
2021/06/14 06:58:05;;;;;;;81.30;72.40;;;;;;;33.95;54.81;100564.22;5092354;27;69962;-36
2021/06/14 07:00:40;;;;;;;78.63;70.22;;;;;;;33.99;54.73;100549.03;5082681;27;65247;-36
2021/06/14 07:03:12;;;;;;;78.28;69.85;;;;;;;34.01;54.77;100541.47;5083725;27;71120;-36
2021/06/14 07:05:46;;;;;;;82.88;74.00;;;;;;;34.03;54.64;100536.59;5082858;27;65433;-36
2021/06/14 07:08:18;;;;;;;79.03;69.57;;;;;;;34.07;54.65;100534.22;5086465;27;69847;-35
2021/06/14 07:10:50;;;;;;;76.10;67.82;;;;;;;34.07;54.43;100518.72;5089238;27;65610;-36
2021/06/14 07:13:30;;;;;;;70.78;63.30;;;;;;;34.10;54.11;100512.78;5090219;27;69022;-36
2021/06/14 07:16:21;;;;;;;69.25;61.85;;;;;;;34.11;54.39;100511.69;5078410;27;66223;-39
2021/06/14 07:22:10;;;;;;;66.25;59.05;;;;;;;34.15;54.42;100493.78;5082620;27;66742;-36
2021/06/14 07:24:42;;;;;;;70.53;61.30;;;;;;;34.21;54.22;100509.13;5086966;27;69299;-36
2021/06/14 07:27:16;;;;;;;68.75;61.42;;;;;;;34.24;54.04;100514.06;5086790;27;66417;-37
2021/06/14 07:29:48;;;;;;;66.40;59.10;;;;;;;34.28;54.03;100519.00;5078833;27;69975;-38
2021/06/14 07:32:20;;;;;;;65.78;57.58;;;;;;;34.28;53.98;100532.63;5081649;27;67251;-41
2021/06/14 07:34:54;;;;;;;65.80;57.67;;;;;;;34.30;53.72;100538.59;5088076;27;70542;-38
2021/06/14 07:37:27;;;;;;;65.80;58.13;;;;;;;34.34;53.62;100539.78;5080945;27;66631;-39
2021/06/14 07:39:59;;;;;;;59.72;53.25;;;;;;;34.37;53.81;100536.53;5084477;27;69989;-37
2021/06/14 07:42:32;;;;;;;58.70;51.33;;;;;;;34.38;53.67;100530.00;5072029;27;65599;-36
2021/06/14 07:45:05;;;;;;;57.55;51.28;;;;;;;34.39;53.42;100520.78;5087731;27;69993;-41
2021/06/14 07:47:38;;;;;;;57.45;49.42;;;;;;;34.39;53.97;100507.16;5084594;27;66315;-41
2021/06/14 07:50:11;;;;;;;53.53;47.55;;;;;;;34.39;53.48;100509.88;5085422;27;69971;-41
2021/06/14 07:52:53;;;;;;;54.70;45.83;;;;;;;34.35;53.40;100514.19;5060037;27;65484;-40
2021/06/14 07:55:26;;;;;;;50.55;45.05;;;;;;;34.38;53.42;100514.50;5075632;27;70008;-36
2021/06/14 07:57:58;;;;;;;47.35;42.33;;;;;;;34.41;53.42;100507.75;5079829;27;65310;-41
2021/06/14 08:00:30;;;;;;;47.70;42.70;;;;;;;34.41;53.55;100513.19;5070339;27;69030;-40
2021/06/14 08:03:04;;;;;;;45.70;39.63;;;;;;;34.41;53.53;100519.44;5074966;27;65127;-37
2021/06/14 08:05:40;;;;;;;43.42;38.90;;;;;;;34.42;53.44;100525.72;5085553;27;69234;-38
2021/06/14 08:08:17;;;;;;;42.08;37.83;;;;;;;34.44;53.47;100523.56;5089096;27;65391;-40
2021/06/14 08:10:50;;;;;;;41.15;36.88;;;;;;;34.44;53.22;100523.56;5052346;27;68528;-38
2021/06/14 08:13:23;;;;;;;38.33;34.38;;;;;;;34.44;53.62;100523.56;5070716;27;66282;-36
2021/06/14 08:15:58;;;;;;;38.25;34.53;;;;;;;34.44;53.59;100520.84;5090088;27;70423;-39
2021/06/14 08:19:00;;;;;;;35.38;31.40;;;;;;;34.43;53.75;100522.72;5086016;27;66077;-36
2021/06/14 08:27:02;;;;;;;32.40;29.20;;;;;;;34.51;53.38;100518.75;5083818;27;69976;-37
2021/06/14 08:29:33;;;;;;;32.25;29.02;;;;;;;34.50;53.39;100528.00;5082370;27;65756;-36
2021/06/14 08:32:05;;;;;;;30.20;27.17;;;;;;;34.50;53.36;100528.00;5081301;27;70598;-35
2021/06/14 08:34:40;;;;;;;29.10;26.42;;;;;;;34.53;53.19;100518.50;5079479;27;65139;-36
2021/06/14 08:37:15;;;;;;;28.48;25.48;;;;;;;34.52;53.23;100531.31;5074083;27;69770;-37
2021/06/14 08:39:47;;;;;;;27.45;24.95;;;;;;;34.50;53.28;100525.28;5093629;27;65933;-37
2021/06/14 08:42:19;;;;;;;24.88;22.65;;;;;;;34.49;53.38;100526.34;5087115;27;69917;-37
2021/06/14 08:44:51;;;;;;;25.67;23.30;;;;;;;34.53;53.27;100532.94;5070527;27;66622;-37
2021/06/14 08:47:24;;;;;;;23.63;21.27;;;;;;;34.53;53.00;100532.94;5088817;27;69073;-37
2021/06/14 08:49:57;;;;;;;23.10;20.85;;;;;;;34.39;52.95;100509.88;5084551;27;65993;-36
2021/06/14 08:52:29;;;;;;;24.30;20.13;;;;;;;34.45;52.89;100519.75;5088043;27;69991;-36
2021/06/14 08:55:01;;;;;;;21.50;19.63;;;;;;;34.52;52.84;100531.31;5081085;27;66159;-38
2021/06/14 08:57:33;;;;;;;21.23;19.10;;;;;;;34.53;52.78;100538.38;5086385;27;69993;-37
2021/06/14 09:00:09;;;;;;;19.73;18.13;;;;;;;34.39;52.75;100524.31;5082416;27;66390;-37
2021/06/14 09:02:42;;;;;;;22.55;16.40;;;;;;;34.54;52.77;100561.81;5079102;27;70251;-37
2021/06/14 09:05:16;;;;;;;17.27;15.68;;;;;;;34.39;52.69;100556.19;5080092;27;65799;-39
2021/06/14 09:07:52;;;;;;;16.92;15.52;;;;;;;34.55;52.88;100596.16;5082189;27;69163;-37
2021/06/14 09:10:31;;;;;;;16.25;14.52;;;;;;;34.54;52.73;100613.56;5079772;27;66161;-36
2021/06/14 09:13:18;;;;;;;15.45;13.35;;;;;;;34.52;52.31;100618.47;5081907;27;69736;-36
2021/06/14 09:16:03;;;;;;;13.80;12.60;;;;;;;34.51;52.98;100627.69;5080105;27;65440;-37
2021/06/14 09:18:37;;;;;;;12.63;11.50;;;;;;;34.50;52.62;100636.94;5084848;27;69197;-36
2021/06/14 09:21:15;;;;;;;11.10;10.15;;;;;;;34.53;52.46;100643.78;5082890;27;65785;-36
2021/06/14 09:23:59;;;;;;;10.60;9.70;;;;;;;34.38;52.46;100628.03;5078236;27;70016;-36
2021/06/14 09:26:39;;;;;;;10.93;9.95;;;;;;;34.32;52.57;100618.97;5088122;27;66103;-36
2021/06/14 09:29:14;;;;;;;9.57;8.70;;;;;;;34.36;52.12;100622.03;5080786;27;69822;-36
2021/06/14 09:32:01;;;;;;;9.23;8.63;;;;;;;34.36;52.12;100647.34;5081029;27;66275;-36
2021/06/14 09:34:36;;;;;;;8.73;7.80;;;;;;;34.31;52.19;100632.84;5083474;27;69058;-37
2021/06/14 09:37:12;;;;;;;11.57;6.78;;;;;;;34.42;52.54;100673.59;5087743;27;65536;-38
2021/06/14 09:39:46;;;;;;;7.35;6.65;;;;;;;34.40;52.67;100677.63;5081411;27;69492;-37
2021/06/14 09:42:21;;;;;;;7.15;6.28;;;;;;;34.22;52.10;100660.50;5077880;27;66470;-36
2021/06/14 09:45:03;;;;;;;7.40;6.43;;;;;;;34.20;52.04;100651.75;5088806;27;70021;-35
2021/06/14 09:47:41;;;;;;;8.25;6.20;;;;;;;34.15;52.63;100651.66;5090621;27;66212;-40
2021/06/14 09:50:23;;;;;;;11.15;6.78;;;;;;;34.31;52.60;100681.84;5082253;27;69951;-39
2021/06/14 09:53:12;;;;;;;7.18;6.00;;;;;;;34.01;52.38;100655.75;5085198;27;66085;-36
2021/06/14 09:55:46;;;;;;;7.82;5.03;;;;;;;34.12;52.50;100646.72;5075814;27;69862;-37
2021/06/14 09:58:17;;;;;;;8.95;5.97;;;;;;;34.23;52.35;100656.69;5085309;27;66214;-36
2021/06/14 10:00:55;;;;;;;7.85;5.38;;;;;;;34.22;52.47;100656.94;5081162;27;69212;-36
2021/06/14 10:03:39;;;;;;;5.68;5.28;;;;;;;34.01;52.26;100636.72;5077002;27;66109;-35
2021/06/14 10:06:26;;;;;;;5.05;4.65;;;;;;;34.14;52.46;100677.25;5080587;27;70490;-36
2021/06/14 10:08:59;;;;;;;4.95;4.65;;;;;;;34.12;52.61;100663.03;5081127;27;65208;-35
2021/06/14 10:11:40;;;;;;;5.22;4.82;;;;;;;34.07;52.09;100638.47;5069509;27;70076;-39
2021/06/14 10:14:18;;;;;;;4.63;4.20;;;;;;;33.94;51.76;100627.91;5083049;27;65909;-35
2021/06/14 10:16:53;;;;;;;7.60;4.93;;;;;;;33.92;52.38;100630.84;5075908;27;70434;-36
2021/06/14 10:19:27;;;;;;;4.90;4.40;;;;;;;33.97;51.97;100632.84;5076606;27;65542;-36
2021/06/14 10:21:59;;;;;;;5.07;4.68;;;;;;;33.90;52.34;100610.41;5076087;27;70251;-36
2021/06/14 10:24:31;;;;;;;4.75;4.45;;;;;;;33.96;52.40;100625.72;5081063;27;64965;-36
2021/06/14 10:27:30;;;;;;;8.02;5.10;;;;;;;33.93;52.13;100623.50;5084559;27;70356;-36
2021/06/14 10:30:21;;;;;;;6.57;4.70;;;;;;;33.90;52.42;100643.88;5078044;27;66224;-38
2021/06/14 10:32:55;;;;;;;11.10;4.88;;;;;;;33.90;52.33;100643.06;5080849;27;69416;-37
2021/06/14 10:35:27;;;;;;;4.97;4.68;;;;;;;33.88;52.40;100642.47;5075172;27;66548;-36
2021/06/14 10:38:02;;;;;;;5.70;5.13;;;;;;;33.73;52.31;100619.38;5078459;27;70004;-36
2021/06/14 10:40:36;;;;;;;6.95;5.07;;;;;;;33.86;52.49;100636.47;5081560;27;66017;-37
2021/06/14 10:43:08;;;;;;;5.43;4.93;;;;;;;33.84;52.77;100644.03;5082613;27;70185;-37
2021/06/14 10:45:39;;;;;;;5.28;4.80;;;;;;;33.79;52.45;100653.78;5083057;27;64770;-39
2021/06/14 10:48:37;;;;;;;6.10;5.57;;;;;;;33.74;52.80;100661.00;5081601;27;70051;-38
2021/06/14 10:51:20;;;;;;;8.53;5.43;;;;;;;33.63;52.99;100640.97;5090287;27;65951;-37
2021/06/14 10:53:52;;;;;;;10.25;5.05;;;;;;;33.76;53.27;100658.88;5088352;27;70064;-38
2021/06/14 10:56:25;;;;;;;6.70;5.38;;;;;;;33.61;53.10;100647.72;5079328;27;66745;-42
2021/06/14 10:59:04;;;;;;;5.88;4.75;;;;;;;33.64;53.55;100656.22;5085418;27;69961;-38
2021/06/14 11:01:42;;;;;;;5.97;5.18;;;;;;;33.74;53.74;100683.63;5080223;27;65160;-39
2021/06/14 11:04:25;;;;;;;7.55;6.05;;;;;;;33.65;53.85;100690.50;5093090;27;69290;-38
2021/06/14 11:06:57;;;;;;;10.25;6.10;;;;;;;33.67;54.03;100703.88;5077229;27;65096;-38
2021/06/14 11:09:50;;;;;;;9.90;5.53;;;;;;;33.55;54.25;100707.47;5086588;27;69858;-39
2021/06/14 11:12:29;;;;;;;7.53;6.05;;;;;;;33.46;53.95;100669.97;5081858;27;66019;-37
2021/06/14 11:15:39;;;;;;;14.38;6.43;;;;;;;33.47;54.35;100693.41;5082656;27;69271;-37
2021/06/14 11:18:35;;;;;;;9.00;6.38;;;;;;;33.49;54.13;100689.38;4998544;28;65265;-37
2021/06/14 11:21:18;;;;;;;12.32;6.90;;;;;;;33.46;54.09;100698.03;5016674;27;69578;-39
2021/06/14 11:24:33;;;;;;;15.90;7.20;;;;;;;33.22;54.17;100702.69;5084298;27;65464;-37
2021/06/14 11:27:08;;;;;;;8.05;6.95;;;;;;;33.01;53.80;100662.56;5091529;27;70026;-42
2021/06/14 11:30:28;;;;;;;6.90;6.22;;;;;;;32.93;54.40;100672.72;5085396;27;66041;-38
2021/06/14 11:33:28;;;;;;;9.85;6.05;;;;;;;32.66;55.54;100631.66;5046945;27;69206;-38
2021/06/14 11:36:22;;;;;;;13.45;6.68;;;;;;;32.86;56.87;100677.47;5091373;27;66747;-38
2021/06/14 11:39:16;;;;;;;7.93;6.28;;;;;;;32.75;57.02;100659.28;5085319;27;69830;-39
2021/06/14 11:41:48;;;;;;;7.88;6.25;;;;;;;32.93;57.00;100678.16;5091759;27;66414;-36
2021/06/14 11:44:30;;;;;;;6.55;5.93;;;;;;;32.89;57.66;100682.41;5084711;27;69700;-38
2021/06/14 11:47:39;;;;;;;8.85;6.32;;;;;;;32.68;57.58;100655.88;5084132;27;66075;-37
2021/06/14 11:50:11;;;;;;;6.22;5.32;;;;;;;32.89;57.61;100676.97;5081734;27;69910;-38
2021/06/14 11:53:19;;;;;;;11.27;6.13;;;;;;;32.79;58.08;100675.94;5087356;27;65720;-38
2021/06/14 11:56:10;;;;;;;6.25;5.75;;;;;;;32.74;58.24;100651.41;5008048;28;68320;-38
2021/06/14 11:58:42;;;;;;;8.35;5.53;;;;;;;32.88;58.21;100669.91;5078792;27;65233;-40
2021/06/14 12:02:01;;;;;;;6.63;5.60;;;;;;;32.72;57.59;100666.03;5100004;27;69806;-36
2021/06/14 12:04:33;;;;;;;7.85;5.25;;;;;;;32.69;55.06;100671.13;5084332;27;65980;-40
2021/06/14 12:07:04;;;;;;;4.78;4.38;;;;;;;32.55;53.92;100669.72;5090813;27;69865;-37
2021/06/14 12:09:57;;;;;;;4.90;4.40;;;;;;;32.34;52.59;100677.34;5085427;27;66185;-39
2021/06/14 12:12:35;;;;;;;7.15;4.50;;;;;;;32.32;52.83;100693.03;5083166;27;68714;-38
2021/06/14 12:15:09;;;;;;;8.73;4.22;;;;;;;32.07;51.97;100679.69;5085006;27;65231;-41
2021/06/14 12:17:53;;;;;;;4.95;4.57;;;;;;;31.95;50.60;100682.34;5081626;27;70455;-38